createdAt,value
2023-04-11T00:01:23.606Z,11.18
2023-04-11T00:03:50.498Z,10.48
2023-04-11T00:06:17.374Z,10.55
2023-04-11T00:08:44.548Z,10.95
2023-04-11T00:11:11.219Z,10.70
2023-04-11T00:13:38.550Z,11.32
2023-04-11T00:16:09.077Z,10.93
2023-04-11T00:18:37.356Z,11.63
2023-04-11T00:21:04.526Z,12.20
2023-04-11T00:23:31.275Z,11.05
2023-04-11T00:25:58.630Z,11.55
2023-04-11T00:28:25.487Z,11.80
2023-04-11T00:30:52.141Z,11.73
2023-04-11T00:33:18.888Z,11.43
2023-04-11T00:35:45.794Z,11.68
2023-04-11T00:38:12.507Z,12.07
2023-04-11T00:40:39.233Z,11.48
2023-04-11T00:43:06.138Z,11.00
2023-04-11T00:45:33.025Z,11.23
2023-04-11T00:48:00.526Z,10.93
2023-04-11T00:50:27.382Z,11.57
2023-04-11T00:52:56.013Z,10.93
2023-04-11T00:55:22.750Z,11.15
2023-04-11T00:57:49.493Z,10.15
2023-04-11T01:00:16.391Z,10.38
2023-04-11T01:02:43.604Z,11.38
2023-04-11T01:05:11.515Z,10.38
2023-04-11T01:07:39.048Z,11.13
2023-04-11T01:10:06.456Z,10.90
2023-04-11T01:12:33.713Z,11.65
2023-04-11T01:15:00.491Z,10.35
2023-04-11T01:17:27.319Z,10.98
2023-04-11T01:19:54.090Z,11.63
2023-04-11T01:22:24.896Z,10.30
2023-04-11T01:24:52.068Z,10.57
2023-04-11T01:27:19.587Z,10.57
2023-04-11T01:29:46.287Z,11.55
2023-04-11T01:32:12.933Z,11.02
2023-04-11T01:34:42.266Z,11.45
2023-04-11T01:39:35.709Z,9.77
2023-04-11T01:42:03.582Z,10.93
2023-04-11T01:44:32.240Z,11.25
2023-04-11T01:46:59.118Z,11.10
2023-04-11T01:49:26.480Z,11.32
2023-04-11T01:51:53.208Z,12.05
2023-04-11T01:54:19.898Z,11.75
2023-04-11T01:56:46.993Z,11.95
2023-04-11T01:59:14.168Z,12.20
2023-04-11T02:01:44.196Z,12.10
2023-04-11T02:04:11.138Z,12.40
2023-04-11T02:06:38.705Z,12.77
2023-04-11T02:09:05.971Z,11.70
2023-04-11T02:11:32.744Z,10.88
2023-04-11T02:13:59.843Z,11.63
2023-04-11T02:16:30.061Z,11.13
2023-04-11T02:18:57.396Z,12.60
2023-04-11T02:21:24.305Z,14.85
2023-04-11T02:23:51.105Z,12.50
2023-04-11T02:26:17.758Z,12.68
2023-04-11T02:28:44.427Z,9.85
2023-04-11T02:31:11.513Z,8.20
2023-04-11T02:33:38.343Z,8.65
2023-04-11T02:36:05.437Z,8.38
2023-04-11T02:38:32.224Z,8.55
2023-04-11T02:41:00.273Z,9.60
2023-04-11T02:43:26.940Z,9.60
2023-04-11T02:45:59.246Z,10.23
2023-04-11T02:48:36.449Z,10.15
2023-04-11T02:51:03.128Z,11.15
2023-04-11T02:53:29.819Z,9.57
2023-04-11T02:55:56.529Z,10.15
2023-04-11T02:58:25.857Z,9.82
2023-04-11T03:03:19.273Z,11.63
2023-04-11T03:05:46.976Z,12.20
2023-04-11T03:08:13.681Z,12.68
2023-04-11T03:10:40.390Z,13.70
2023-04-11T03:13:07.075Z,14.80
2023-04-11T03:15:33.778Z,15.80
2023-04-11T03:18:00.469Z,16.08
2023-04-11T03:20:27.187Z,15.52
2023-04-11T03:22:53.821Z,16.17
2023-04-11T03:25:20.598Z,15.30
2023-04-11T03:27:47.281Z,16.08
2023-04-11T03:30:14.548Z,17.40
2023-04-11T03:32:41.416Z,16.10
2023-04-11T03:35:08.627Z,16.40
2023-04-11T03:37:35.384Z,16.92
2023-04-11T03:40:02.086Z,19.33
2023-04-11T03:42:28.740Z,17.30
2023-04-11T03:44:55.365Z,19.27
2023-04-11T03:47:22.025Z,19.48
2023-04-11T03:49:48.706Z,18.88
2023-04-11T03:52:17.504Z,19.10
2023-04-11T03:54:46.385Z,19.70
2023-04-11T03:57:14.340Z,20.08
2023-04-11T03:59:41.213Z,20.52
2023-04-11T04:02:08.365Z,21.17
2023-04-11T04:04:36.853Z,19.83
2023-04-11T04:07:04.369Z,18.65
2023-04-11T04:09:31.016Z,29.58
2023-04-11T04:11:57.699Z,17.17
2023-04-11T04:14:24.365Z,18.17
2023-04-11T04:16:51.022Z,16.02
2023-04-11T04:19:17.730Z,14.20
2023-04-11T04:21:45.917Z,11.75
2023-04-11T04:24:12.618Z,10.77
2023-04-11T04:26:39.832Z,9.82
2023-04-11T04:29:06.510Z,8.63
2023-04-11T04:31:36.209Z,11.77
2023-04-11T04:34:10.272Z,10.45
2023-04-11T04:36:48.041Z,16.52
2023-04-11T04:39:20.361Z,12.18
2023-04-11T04:41:58.244Z,12.50
2023-04-11T04:44:25.341Z,11.52
2023-04-11T04:46:55.763Z,11.52
2023-04-11T04:49:22.464Z,13.00
2023-04-11T04:51:49.153Z,13.60
2023-04-11T04:54:19.750Z,12.02
2023-04-11T04:56:50.494Z,12.35
2023-04-11T04:59:18.727Z,13.73
2023-04-11T05:01:45.618Z,12.68
2023-04-11T05:04:12.532Z,12.18
2023-04-11T05:06:39.403Z,14.77
2023-04-11T05:09:06.279Z,12.77
2023-04-11T05:11:33.824Z,12.20
2023-04-11T05:14:00.759Z,12.30
2023-04-11T05:16:27.520Z,12.10
2023-04-11T05:18:54.227Z,10.25
2023-04-11T05:21:21.053Z,10.43
2023-04-11T05:23:47.909Z,9.77
2023-04-11T05:26:14.814Z,9.98
2023-04-11T05:28:41.729Z,10.57
2023-04-11T05:31:09.995Z,9.35
2023-04-11T05:33:38.585Z,10.48
2023-04-11T05:36:06.534Z,13.05
2023-04-11T05:38:33.545Z,11.98
2023-04-11T05:41:00.484Z,9.55
2023-04-11T05:43:27.520Z,9.35
2023-04-11T05:45:55.990Z,8.18
2023-04-11T05:48:24.031Z,8.13
2023-04-11T05:50:51.485Z,8.40
2023-04-11T05:53:18.186Z,9.30
2023-04-11T05:55:44.980Z,8.27
2023-04-11T05:58:11.676Z,8.32
2023-04-11T06:00:38.561Z,9.75
2023-04-11T06:03:05.834Z,9.40
2023-04-11T06:05:33.169Z,8.45
2023-04-11T06:08:00.011Z,8.95
2023-04-11T06:10:27.316Z,9.32
2023-04-11T06:12:54.174Z,16.42
2023-04-11T06:15:21.988Z,8.73
2023-04-11T06:17:48.730Z,8.13
2023-04-11T06:20:16.125Z,8.38
2023-04-11T06:22:43.422Z,8.82
2023-04-11T06:25:10.888Z,9.75
2023-04-11T06:27:37.587Z,8.70
2023-04-11T06:30:04.716Z,11.30
2023-04-11T06:32:31.641Z,8.18
2023-04-11T06:34:58.328Z,7.75
2023-04-11T06:37:24.989Z,8.10
2023-04-11T06:40:10.675Z,8.50
2023-04-11T06:42:37.429Z,8.25
2023-04-11T06:45:06.116Z,7.32
2023-04-11T06:47:33.068Z,8.63
2023-04-11T06:49:59.818Z,7.03
2023-04-11T06:52:28.199Z,6.80
2023-04-11T06:54:55.028Z,6.47
2023-04-11T06:57:22.084Z,6.53
2023-04-11T06:59:48.905Z,8.18
2023-04-11T07:02:15.747Z,6.10
2023-04-11T07:04:42.585Z,7.28
2023-04-11T07:07:09.411Z,7.18
2023-04-11T07:09:36.375Z,7.03
2023-04-11T07:12:03.072Z,6.22
2023-04-11T07:14:29.834Z,6.38
2023-04-11T07:16:56.551Z,8.40
2023-04-11T07:19:23.197Z,6.72
2023-04-11T07:21:49.830Z,4.85
2023-04-11T07:24:18.660Z,4.75
2023-04-11T07:26:46.569Z,5.07
2023-04-11T07:29:14.885Z,3.70
2023-04-11T07:31:42.028Z,6.85
2023-04-11T07:34:08.780Z,4.88
2023-04-11T07:36:35.828Z,4.50
2023-04-11T07:39:04.422Z,4.70
2023-04-11T07:41:31.090Z,13.10
2023-04-11T07:43:58.077Z,5.55
2023-04-11T07:46:25.033Z,5.50
2023-04-11T07:48:51.782Z,5.03
2023-04-11T07:51:18.885Z,5.95
2023-04-11T07:53:45.734Z,4.15
2023-04-11T07:56:12.457Z,7.95
2023-04-11T07:58:39.237Z,4.32
2023-04-11T08:01:09.081Z,3.63
2023-04-11T08:03:36.393Z,4.85
2023-04-11T08:06:03.283Z,4.57
2023-04-11T08:08:29.971Z,4.93
2023-04-11T08:10:56.674Z,4.97
2023-04-11T08:13:23.281Z,4.75
2023-04-11T08:15:49.936Z,4.97
2023-04-11T08:18:16.720Z,6.53
2023-04-11T08:20:43.521Z,5.55
2023-04-11T08:23:10.673Z,5.70
2023-04-11T08:25:37.634Z,4.57
2023-04-11T08:28:05.281Z,4.28
2023-04-11T08:30:32.380Z,3.88
2023-04-11T08:32:59.368Z,4.10
2023-04-11T08:35:26.244Z,4.80
2023-04-11T08:37:53.089Z,4.22
2023-04-11T08:40:20.098Z,4.18
2023-04-11T08:42:47.064Z,4.80
2023-04-11T08:45:13.809Z,6.55
2023-04-11T08:47:41.977Z,3.72
2023-04-11T08:50:10.889Z,4.10
2023-04-11T08:52:39.038Z,5.57
2023-04-11T08:55:06.076Z,7.15
2023-04-11T08:57:32.876Z,3.38
2023-04-11T09:00:08.395Z,3.50
2023-04-11T09:05:01.788Z,3.40
2023-04-11T09:07:29.140Z,2.85
2023-04-11T09:09:55.828Z,4.10
2023-04-11T09:12:29.753Z,9.00
2023-04-11T09:14:56.657Z,5.10
2023-04-11T09:17:23.449Z,4.15
2023-04-11T09:19:50.216Z,4.28
2023-04-11T09:22:16.968Z,4.45
2023-04-11T09:24:43.739Z,4.82
2023-04-11T09:27:16.631Z,4.57
2023-04-11T09:29:46.210Z,4.07
2023-04-11T09:32:34.144Z,3.95
2023-04-11T09:35:20.903Z,4.47
2023-04-11T09:37:49.668Z,3.92
2023-04-11T09:40:18.461Z,3.38
2023-04-11T09:42:46.754Z,3.90
2023-04-11T09:45:21.643Z,5.05
2023-04-11T09:47:51.122Z,3.50
2023-04-11T09:50:18.121Z,4.20
2023-04-11T09:52:46.140Z,5.03
2023-04-11T09:55:15.158Z,3.60
2023-04-11T09:57:45.926Z,3.50
2023-04-11T10:00:17.419Z,2.92
2023-04-11T10:02:46.016Z,3.88
2023-04-11T10:05:14.047Z,4.03
2023-04-11T10:08:00.415Z,4.55
2023-04-11T10:10:27.192Z,4.63
2023-04-11T10:12:53.878Z,4.35
2023-04-11T10:15:21.786Z,4.05
2023-04-11T10:18:10.611Z,4.68
2023-04-11T10:20:44.979Z,3.80
2023-04-11T10:23:12.836Z,8.00
2023-04-11T10:26:02.537Z,4.47
2023-04-11T10:28:39.772Z,3.47
2023-04-11T10:31:09.839Z,3.30
2023-04-11T10:33:38.014Z,3.70
2023-04-11T10:36:12.744Z,3.80
2023-04-11T10:38:48.651Z,3.47
2023-04-11T10:41:19.562Z,3.00
2023-04-11T10:43:46.980Z,3.38
2023-04-11T10:46:24.652Z,3.22
2023-04-11T10:48:57.838Z,9.05
2023-04-11T10:51:26.818Z,3.35
2023-04-11T10:53:55.839Z,3.05
2023-04-11T10:56:46.723Z,3.25
2023-04-11T10:59:31.604Z,3.70
2023-04-11T11:02:01.354Z,4.20
2023-04-11T11:04:35.458Z,4.50
2023-04-11T11:07:05.331Z,4.22
2023-04-11T11:09:33.145Z,4.57
2023-04-11T11:12:16.212Z,3.67
2023-04-11T11:14:45.481Z,5.53
2023-04-11T11:17:13.731Z,4.03
2023-04-11T11:19:48.678Z,7.18
2023-04-11T11:22:16.653Z,3.88
2023-04-11T11:24:43.371Z,4.03
2023-04-11T11:27:24.153Z,4.20
2023-04-11T11:29:51.722Z,3.42
2023-04-11T11:32:28.510Z,4.97
2023-04-11T11:34:57.683Z,3.40
2023-04-11T11:37:25.038Z,3.30
2023-04-11T11:39:52.079Z,4.60
2023-04-11T11:42:18.908Z,8.05
2023-04-11T11:44:45.908Z,3.50
2023-04-11T11:47:17.749Z,4.00
2023-04-11T11:49:49.182Z,3.20
2023-04-11T11:52:37.030Z,3.75
2023-04-11T11:57:34.094Z,4.68
2023-04-11T12:00:01.892Z,3.65
2023-04-11T12:02:28.875Z,3.00
2023-04-11T12:05:01.496Z,3.42
2023-04-11T12:07:34.334Z,3.45
2023-04-11T12:10:02.274Z,2.80
2023-04-11T12:12:35.163Z,2.75
2023-04-11T12:15:03.886Z,5.00
2023-04-11T12:17:38.030Z,3.13
2023-04-11T12:20:08.515Z,3.83
2023-04-11T12:22:35.716Z,3.60
2023-04-11T12:25:13.658Z,3.42
2023-04-11T12:27:47.045Z,3.40
2023-04-11T12:30:16.805Z,3.85
2023-04-11T12:32:44.847Z,5.43
2023-04-11T12:35:12.628Z,3.22
2023-04-11T12:37:39.653Z,4.85
2023-04-11T12:40:10.303Z,4.97
2023-04-11T12:42:53.249Z,4.65
2023-04-11T12:45:23.235Z,4.47
2023-04-11T12:47:49.984Z,4.70
2023-04-11T12:50:16.829Z,5.10
2023-04-11T12:52:43.482Z,4.90
2023-04-11T12:55:10.459Z,3.90
2023-04-11T12:57:37.156Z,4.82
2023-04-11T13:00:07.347Z,7.07
2023-04-11T13:02:42.267Z,4.40
2023-04-11T13:05:11.940Z,5.70
2023-04-11T13:07:39.273Z,4.65
2023-04-11T13:10:08.041Z,4.00
2023-04-11T13:12:39.815Z,4.85
2023-04-11T13:15:08.052Z,4.40
2023-04-11T13:17:34.978Z,4.55
2023-04-11T13:20:01.844Z,3.75
2023-04-11T13:22:28.557Z,3.70
2023-04-11T13:24:55.215Z,3.03
2023-04-11T13:27:22.209Z,3.60
2023-04-11T13:29:48.901Z,3.40
2023-04-11T13:32:15.938Z,2.97
2023-04-11T13:34:42.684Z,3.70
2023-04-11T13:37:09.524Z,3.38
2023-04-11T13:39:36.354Z,3.20
2023-04-11T13:42:03.054Z,3.80
2023-04-11T13:44:29.779Z,3.85
2023-04-11T13:46:56.699Z,3.33
2023-04-11T13:49:23.362Z,3.30
2023-04-11T13:51:51.416Z,3.70
2023-04-11T13:54:18.236Z,3.45
2023-04-11T13:56:46.225Z,4.25
2023-04-11T13:59:13.198Z,3.53
2023-04-11T14:01:40.531Z,2.90
2023-04-11T14:04:09.010Z,3.20
2023-04-11T14:06:37.556Z,3.85
2023-04-11T14:09:05.643Z,3.58
2023-04-11T14:11:32.414Z,3.28
2023-04-11T14:13:59.108Z,3.63
2023-04-11T14:16:25.820Z,3.17
2023-04-11T14:18:52.523Z,2.67
2023-04-11T14:21:19.283Z,2.33
2023-04-11T14:23:45.963Z,2.55
2023-04-11T14:26:12.617Z,2.75
2023-04-11T14:28:39.328Z,2.78
2023-04-11T14:31:06.660Z,3.17
2023-04-11T14:33:33.523Z,2.67
2023-04-11T14:36:00.799Z,2.67
2023-04-11T14:38:46.370Z,2.65
2023-04-11T14:41:13.146Z,3.45
2023-04-11T14:43:39.865Z,2.20
2023-04-11T14:46:06.717Z,2.47
2023-04-11T14:48:33.441Z,3.08
2023-04-11T14:51:03.127Z,2.45
2023-04-11T14:53:29.880Z,2.53
2023-04-11T14:55:56.528Z,2.40
2023-04-11T14:58:23.345Z,2.42
2023-04-11T15:00:50.157Z,2.08
2023-04-11T15:03:17.043Z,2.00
2023-04-11T15:05:43.757Z,2.20
2023-04-11T15:08:10.487Z,2.13
2023-04-11T15:10:37.194Z,2.08
2023-04-11T15:13:03.976Z,3.53
2023-04-11T15:15:30.663Z,2.13
2023-04-11T15:18:19.100Z,2.40
2023-04-11T15:20:45.971Z,3.60
2023-04-11T15:23:12.593Z,2.35
2023-04-11T15:25:39.301Z,2.10
2023-04-11T15:28:06.070Z,2.78
2023-04-11T15:30:32.694Z,4.22
2023-04-11T15:32:59.380Z,1.98
2023-04-11T15:35:26.211Z,2.22
2023-04-11T15:37:52.883Z,3.88
2023-04-11T15:40:19.579Z,2.45
2023-04-11T15:42:46.257Z,2.15
2023-04-11T15:45:13.026Z,2.28
2023-04-11T15:47:39.708Z,1.70
2023-04-11T15:50:07.425Z,2.40
2023-04-11T15:52:34.105Z,2.20
2023-04-11T15:55:00.926Z,2.20
2023-04-11T15:57:28.678Z,2.92
2023-04-11T15:59:56.119Z,2.45
2023-04-11T16:02:23.304Z,2.65
2023-04-11T16:04:53.140Z,4.50
2023-04-11T16:07:23.141Z,2.30
2023-04-11T16:12:16.569Z,2.88
2023-04-11T16:14:45.741Z,2.80
2023-04-11T16:17:13.041Z,2.58
2023-04-11T16:19:39.762Z,3.00
2023-04-11T16:22:06.442Z,3.33
2023-04-11T16:24:34.225Z,3.00
2023-04-11T16:27:01.424Z,2.92
2023-04-11T16:29:28.448Z,2.63
2023-04-11T16:31:55.548Z,1.98
2023-04-11T16:34:22.293Z,2.10
2023-04-11T16:36:48.925Z,4.85
2023-04-11T16:39:15.664Z,5.35
2023-04-11T16:41:42.365Z,8.85
2023-04-11T16:44:27.753Z,3.25
2023-04-11T16:46:54.425Z,3.22
2023-04-11T16:49:21.244Z,4.03
2023-04-11T16:51:47.989Z,7.63
2023-04-11T16:54:15.100Z,4.70
2023-04-11T16:56:41.831Z,2.28
2023-04-11T16:59:10.317Z,2.42
2023-04-11T17:01:37.010Z,2.38
2023-04-11T17:04:03.862Z,2.20
2023-04-11T17:06:32.179Z,1.98
2023-04-11T17:08:58.928Z,2.15
2023-04-11T17:11:25.920Z,3.25
2023-04-11T17:13:54.409Z,2.80
2023-04-11T17:16:21.682Z,3.45
2023-04-11T17:18:48.383Z,2.67
2023-04-11T17:21:15.040Z,4.43
2023-04-11T17:23:43.431Z,2.33
2023-04-11T17:26:24.875Z,3.20
2023-04-11T17:28:51.907Z,2.53
2023-04-11T17:31:18.904Z,2.00
2023-04-11T17:33:45.739Z,4.40
2023-04-11T17:36:13.282Z,2.08
2023-04-11T17:38:40.712Z,6.10
2023-04-11T17:41:14.573Z,2.38
2023-04-11T17:43:42.160Z,2.35
2023-04-11T17:46:09.104Z,1.30
2023-04-11T17:48:36.700Z,2.10
2023-04-11T17:51:05.702Z,1.90
2023-04-11T17:53:32.971Z,3.15
2023-04-11T17:56:04.397Z,1.75
2023-04-11T17:58:31.810Z,1.88
2023-04-11T18:00:58.680Z,1.52
2023-04-11T18:03:26.065Z,1.67
2023-04-11T18:05:54.426Z,1.50
2023-04-11T18:08:29.879Z,2.15
2023-04-11T18:13:31.692Z,2.63
2023-04-11T18:15:58.402Z,3.72
2023-04-11T18:18:25.276Z,2.65
2023-04-11T18:20:51.974Z,2.03
2023-04-11T18:23:18.619Z,3.50
2023-04-11T18:25:45.399Z,1.85
2023-04-11T18:28:12.049Z,1.73
2023-04-11T18:30:38.892Z,1.50
2023-04-11T18:33:05.726Z,1.60
2023-04-11T18:35:32.591Z,2.53
2023-04-11T18:38:00.375Z,1.98
2023-04-11T18:40:27.832Z,1.42
2023-04-11T18:42:56.265Z,7.07
2023-04-11T18:45:23.997Z,4.72
2023-04-11T18:47:51.224Z,5.18
2023-04-11T18:50:18.773Z,1.90
2023-04-11T18:52:47.667Z,2.30
2023-04-11T18:55:16.314Z,2.38
2023-04-11T18:57:47.166Z,1.50
2023-04-11T19:00:18.480Z,1.83
2023-04-11T19:02:46.193Z,1.80
2023-04-11T19:05:13.802Z,1.52
2023-04-11T19:07:42.146Z,4.03
2023-04-11T19:10:09.965Z,5.95
2023-04-11T19:12:37.271Z,1.50
2023-04-11T19:15:06.680Z,1.60
2023-04-11T19:17:38.560Z,1.70
2023-04-11T19:20:12.912Z,1.50
2023-04-11T19:22:41.215Z,3.10
2023-04-11T19:25:12.055Z,5.30
2023-04-11T19:27:41.658Z,2.95
2023-04-11T19:30:10.327Z,1.92
2023-04-11T19:32:40.712Z,1.38
2023-04-11T19:35:10.092Z,2.53
2023-04-11T19:37:37.141Z,7.10
2023-04-11T19:40:07.652Z,3.03
2023-04-11T19:42:37.361Z,2.28
2023-04-11T19:45:05.061Z,4.38
2023-04-11T19:47:32.306Z,7.53
2023-04-11T19:50:01.241Z,2.47
2023-04-11T19:52:28.616Z,2.13
2023-04-11T19:54:55.980Z,1.80
2023-04-11T19:57:23.476Z,3.28
2023-04-11T19:59:50.655Z,2.03
2023-04-11T20:02:17.476Z,2.40
2023-04-11T20:04:45.914Z,1.90
2023-04-11T20:07:12.759Z,2.65
2023-04-11T20:09:39.410Z,2.40
2023-04-11T20:12:06.734Z,1.65
2023-04-11T20:14:33.618Z,2.20
2023-04-11T20:17:00.334Z,3.67
2023-04-11T20:19:29.748Z,3.95
2023-04-11T20:21:56.709Z,3.67
2023-04-11T20:24:24.136Z,2.65
2023-04-11T20:26:51.355Z,3.35
2023-04-11T20:29:18.293Z,2.58
2023-04-11T20:31:45.363Z,2.75
2023-04-11T20:34:12.073Z,3.00
2023-04-11T20:36:39.022Z,2.58
2023-04-11T20:39:06.330Z,2.70
2023-04-11T20:41:33.172Z,1.80
2023-04-11T20:43:59.954Z,2.05
2023-04-11T20:46:29.905Z,2.03
2023-04-11T20:48:56.785Z,1.90
2023-04-11T20:51:23.696Z,1.60
2023-04-11T20:53:50.507Z,1.55
2023-04-11T20:56:17.432Z,1.67
2023-04-11T20:58:46.037Z,1.80
2023-04-11T21:01:13.656Z,1.73
2023-04-11T21:03:42.405Z,1.85
2023-04-11T21:06:10.389Z,2.03
2023-04-11T21:08:37.901Z,1.90
2023-04-11T21:11:05.750Z,1.83
2023-04-11T21:13:32.447Z,1.60
2023-04-11T21:15:59.191Z,1.63
2023-04-11T21:18:26.046Z,1.80
2023-04-11T21:20:52.736Z,2.20
2023-04-11T21:23:19.422Z,1.70
2023-04-11T21:25:46.129Z,1.90
2023-04-11T21:28:12.814Z,2.13
2023-04-11T21:30:39.752Z,1.63
2023-04-11T21:33:06.502Z,1.92
2023-04-11T21:35:33.308Z,1.52
2023-04-11T21:38:00.007Z,1.48
2023-04-11T21:40:26.659Z,1.30
2023-04-11T21:42:53.535Z,1.35
2023-04-11T21:45:20.322Z,1.42
2023-04-11T21:47:47.311Z,1.15
2023-04-11T21:50:14.136Z,1.77
2023-04-11T21:52:41.103Z,1.63
2023-04-11T21:55:09.088Z,1.00
2023-04-11T21:57:36.089Z,1.20
2023-04-11T22:00:03.728Z,1.33
2023-04-11T22:02:30.827Z,0.90
2023-04-11T22:05:06.245Z,2.95
2023-04-11T22:07:46.499Z,3.63
2023-04-11T22:10:13.274Z,1.33
2023-04-11T22:12:42.061Z,1.33
2023-04-11T22:15:11.066Z,1.10
2023-04-11T22:17:38.449Z,1.13
2023-04-11T22:20:06.944Z,1.05
2023-04-11T22:22:35.180Z,1.10
2023-04-11T22:25:01.885Z,1.30
2023-04-11T22:27:29.587Z,1.33
2023-04-11T22:29:56.357Z,1.15
2023-04-11T22:32:23.865Z,1.92
2023-04-11T22:34:50.580Z,1.10
2023-04-11T22:37:17.397Z,0.85
2023-04-11T22:39:44.083Z,0.88
2023-04-11T22:42:11.681Z,1.33
2023-04-11T22:44:38.521Z,1.55
2023-04-11T22:47:11.273Z,2.20
2023-04-11T22:49:40.926Z,1.45
2023-04-11T22:52:14.512Z,1.40
2023-04-11T22:54:42.037Z,1.83
2023-04-11T22:57:08.687Z,1.48
2023-04-11T22:59:36.598Z,1.80
2023-04-11T23:02:03.450Z,1.92
2023-04-11T23:04:31.711Z,1.90
2023-04-11T23:06:58.665Z,2.08
2023-04-11T23:09:25.420Z,1.90
2023-04-11T23:11:52.363Z,2.50
2023-04-11T23:14:21.031Z,2.28
2023-04-11T23:16:48.274Z,2.15
2023-04-11T23:19:15.095Z,2.85
2023-04-11T23:21:42.255Z,2.00
2023-04-11T23:24:09.947Z,2.05
2023-04-11T23:26:37.238Z,2.08
2023-04-11T23:29:04.207Z,2.15
2023-04-11T23:31:31.795Z,2.20
2023-04-11T23:33:58.756Z,2.40
2023-04-11T23:36:27.568Z,1.70
2023-04-11T23:38:54.290Z,2.20
2023-04-11T23:41:20.987Z,2.50
2023-04-11T23:43:47.621Z,2.30
2023-04-11T23:46:14.409Z,2.20
2023-04-11T23:48:41.217Z,2.47
2023-04-11T23:51:08.368Z,2.20
2023-04-11T23:53:35.046Z,1.95
2023-04-11T23:56:01.803Z,2.50
2023-04-11T23:58:28.481Z,2.20
